sensor_id;sensor_type;location;lat;lon;timestamp;P1;durP1;ratioP1;P2;durP2;ratioP2
82705;SDS011;72428;41.978;21.464;2024-01-27T00:01:34;126.28;;;65.70;;
82705;SDS011;72428;41.978;21.464;2024-01-27T00:04:01;121.93;;;62.42;;
82705;SDS011;72428;41.978;21.464;2024-01-27T00:06:27;120.38;;;61.85;;
82705;SDS011;72428;41.978;21.464;2024-01-27T00:08:53;126.80;;;63.13;;
82705;SDS011;72428;41.978;21.464;2024-01-27T00:11:19;124.50;;;66.07;;
82705;SDS011;72428;41.978;21.464;2024-01-27T00:13:45;128.30;;;64.10;;
82705;SDS011;72428;41.978;21.464;2024-01-27T00:16:12;120.03;;;60.95;;
82705;SDS011;72428;41.978;21.464;2024-01-27T00:18:38;119.82;;;60.15;;
82705;SDS011;72428;41.978;21.464;2024-01-27T00:21:05;115.97;;;57.53;;
82705;SDS011;72428;41.978;21.464;2024-01-27T00:23:31;118.40;;;61.60;;
82705;SDS011;72428;41.978;21.464;2024-01-27T00:25:59;119.43;;;56.60;;
82705;SDS011;72428;41.978;21.464;2024-01-27T00:28:25;110.78;;;56.50;;
82705;SDS011;72428;41.978;21.464;2024-01-27T00:30:51;106.72;;;54.58;;
82705;SDS011;72428;41.978;21.464;2024-01-27T00:33:17;111.70;;;59.75;;
82705;SDS011;72428;41.978;21.464;2024-01-27T00:35:43;134.55;;;61.33;;
82705;SDS011;72428;41.978;21.464;2024-01-27T00:38:09;117.68;;;56.03;;
82705;SDS011;72428;41.978;21.464;2024-01-27T00:40:35;97.88;;;50.30;;
82705;SDS011;72428;41.978;21.464;2024-01-27T00:43:02;95.78;;;50.15;;
82705;SDS011;72428;41.978;21.464;2024-01-27T00:45:28;92.97;;;45.60;;
82705;SDS011;72428;41.978;21.464;2024-01-27T00:47:55;91.80;;;47.08;;
82705;SDS011;72428;41.978;21.464;2024-01-27T00:50:21;91.85;;;49.38;;
82705;SDS011;72428;41.978;21.464;2024-01-27T00:52:48;91.63;;;48.35;;
82705;SDS011;72428;41.978;21.464;2024-01-27T00:55:14;88.80;;;44.88;;
82705;SDS011;72428;41.978;21.464;2024-01-27T00:57:40;81.57;;;40.85;;
82705;SDS011;72428;41.978;21.464;2024-01-27T01:00:07;75.35;;;40.67;;
82705;SDS011;72428;41.978;21.464;2024-01-27T01:02:34;89.90;;;44.83;;
82705;SDS011;72428;41.978;21.464;2024-01-27T01:05:00;86.22;;;43.28;;
82705;SDS011;72428;41.978;21.464;2024-01-27T01:07:26;73.13;;;40.97;;
82705;SDS011;72428;41.978;21.464;2024-01-27T01:09:52;75.53;;;41.35;;
82705;SDS011;72428;41.978;21.464;2024-01-27T01:12:18;78.60;;;42.72;;
82705;SDS011;72428;41.978;21.464;2024-01-27T01:14:44;82.10;;;42.55;;
82705;SDS011;72428;41.978;21.464;2024-01-27T01:17:10;80.88;;;42.08;;
82705;SDS011;72428;41.978;21.464;2024-01-27T01:19:37;82.93;;;44.55;;
82705;SDS011;72428;41.978;21.464;2024-01-27T01:22:04;101.75;;;45.25;;
82705;SDS011;72428;41.978;21.464;2024-01-27T01:24:30;75.22;;;37.58;;
82705;SDS011;72428;41.978;21.464;2024-01-27T01:26:56;76.35;;;41.65;;
82705;SDS011;72428;41.978;21.464;2024-01-27T01:29:22;78.80;;;41.22;;
82705;SDS011;72428;41.978;21.464;2024-01-27T01:31:49;72.55;;;40.28;;
82705;SDS011;72428;41.978;21.464;2024-01-27T01:34:15;78.50;;;38.55;;
82705;SDS011;72428;41.978;21.464;2024-01-27T01:36:41;70.43;;;37.28;;
82705;SDS011;72428;41.978;21.464;2024-01-27T01:39:09;67.45;;;37.47;;
82705;SDS011;72428;41.978;21.464;2024-01-27T01:41:35;70.28;;;36.50;;
82705;SDS011;72428;41.978;21.464;2024-01-27T01:44:01;67.72;;;37.35;;
82705;SDS011;72428;41.978;21.464;2024-01-27T01:46:28;73.28;;;37.70;;
82705;SDS011;72428;41.978;21.464;2024-01-27T01:48:54;78.22;;;39.92;;
82705;SDS011;72428;41.978;21.464;2024-01-27T01:51:20;81.43;;;42.08;;
82705;SDS011;72428;41.978;21.464;2024-01-27T01:53:47;77.88;;;38.25;;
82705;SDS011;72428;41.978;21.464;2024-01-27T01:56:14;65.15;;;37.42;;
82705;SDS011;72428;41.978;21.464;2024-01-27T01:58:41;60.75;;;34.15;;
82705;SDS011;72428;41.978;21.464;2024-01-27T02:01:07;73.18;;;34.88;;
82705;SDS011;72428;41.978;21.464;2024-01-27T02:03:33;62.85;;;34.55;;
82705;SDS011;72428;41.978;21.464;2024-01-27T02:05:59;72.35;;;33.67;;
82705;SDS011;72428;41.978;21.464;2024-01-27T02:08:25;63.33;;;31.55;;
82705;SDS011;72428;41.978;21.464;2024-01-27T02:10:51;65.55;;;31.30;;
82705;SDS011;72428;41.978;21.464;2024-01-27T02:13:18;51.10;;;28.25;;
82705;SDS011;72428;41.978;21.464;2024-01-27T02:15:44;56.05;;;28.42;;
82705;SDS011;72428;41.978;21.464;2024-01-27T02:18:10;53.20;;;28.02;;
82705;SDS011;72428;41.978;21.464;2024-01-27T02:20:36;52.33;;;25.98;;
82705;SDS011;72428;41.978;21.464;2024-01-27T02:23:03;58.00;;;30.77;;
82705;SDS011;72428;41.978;21.464;2024-01-27T02:25:33;56.13;;;29.48;;
82705;SDS011;72428;41.978;21.464;2024-01-27T02:27:59;54.30;;;31.55;;
82705;SDS011;72428;41.978;21.464;2024-01-27T02:30:25;67.38;;;35.42;;
82705;SDS011;72428;41.978;21.464;2024-01-27T02:32:51;63.80;;;32.85;;
82705;SDS011;72428;41.978;21.464;2024-01-27T02:35:17;59.20;;;32.17;;
82705;SDS011;72428;41.978;21.464;2024-01-27T02:37:43;64.43;;;33.55;;
82705;SDS011;72428;41.978;21.464;2024-01-27T02:40:10;54.35;;;33.80;;
82705;SDS011;72428;41.978;21.464;2024-01-27T02:42:36;61.38;;;31.92;;
82705;SDS011;72428;41.978;21.464;2024-01-27T02:45:03;52.53;;;28.08;;
82705;SDS011;72428;41.978;21.464;2024-01-27T02:47:29;53.10;;;30.63;;
82705;SDS011;72428;41.978;21.464;2024-01-27T02:49:56;54.58;;;29.45;;
82705;SDS011;72428;41.978;21.464;2024-01-27T02:52:22;51.70;;;27.80;;
82705;SDS011;72428;41.978;21.464;2024-01-27T02:54:48;42.83;;;25.40;;
82705;SDS011;72428;41.978;21.464;2024-01-27T02:57:14;42.60;;;26.40;;
82705;SDS011;72428;41.978;21.464;2024-01-27T02:59:44;43.03;;;26.05;;
82705;SDS011;72428;41.978;21.464;2024-01-27T03:02:10;46.78;;;26.35;;
82705;SDS011;72428;41.978;21.464;2024-01-27T03:04:36;44.22;;;26.60;;
82705;SDS011;72428;41.978;21.464;2024-01-27T03:07:02;47.85;;;28.00;;
82705;SDS011;72428;41.978;21.464;2024-01-27T03:09:29;79.38;;;37.63;;
82705;SDS011;72428;41.978;21.464;2024-01-27T03:11:56;74.53;;;39.85;;
82705;SDS011;72428;41.978;21.464;2024-01-27T03:14:22;73.28;;;40.85;;
82705;SDS011;72428;41.978;21.464;2024-01-27T03:16:48;81.47;;;41.72;;
82705;SDS011;72428;41.978;21.464;2024-01-27T03:19:14;71.07;;;37.10;;
82705;SDS011;72428;41.978;21.464;2024-01-27T03:21:40;65.18;;;37.30;;
82705;SDS011;72428;41.978;21.464;2024-01-27T03:24:06;75.28;;;40.30;;
82705;SDS011;72428;41.978;21.464;2024-01-27T03:26:32;72.43;;;38.75;;
82705;SDS011;72428;41.978;21.464;2024-01-27T03:28:58;76.72;;;40.17;;
82705;SDS011;72428;41.978;21.464;2024-01-27T03:31:31;78.38;;;41.63;;
82705;SDS011;72428;41.978;21.464;2024-01-27T03:34:00;80.20;;;42.78;;
82705;SDS011;72428;41.978;21.464;2024-01-27T03:36:26;74.55;;;39.53;;
82705;SDS011;72428;41.978;21.464;2024-01-27T03:38:52;80.25;;;43.90;;
82705;SDS011;72428;41.978;21.464;2024-01-27T03:41:19;68.70;;;37.55;;
82705;SDS011;72428;41.978;21.464;2024-01-27T03:43:45;80.20;;;39.53;;
82705;SDS011;72428;41.978;21.464;2024-01-27T03:46:11;69.35;;;35.72;;
82705;SDS011;72428;41.978;21.464;2024-01-27T03:48:37;64.13;;;37.28;;
82705;SDS011;72428;41.978;21.464;2024-01-27T03:51:03;71.47;;;38.30;;
82705;SDS011;72428;41.978;21.464;2024-01-27T03:53:29;63.92;;;35.58;;
82705;SDS011;72428;41.978;21.464;2024-01-27T03:55:56;66.07;;;38.58;;
82705;SDS011;72428;41.978;21.464;2024-01-27T03:58:27;64.82;;;35.50;;
82705;SDS011;72428;41.978;21.464;2024-01-27T04:00:54;69.68;;;35.15;;
82705;SDS011;72428;41.978;21.464;2024-01-27T04:03:20;61.60;;;34.92;;
82705;SDS011;72428;41.978;21.464;2024-01-27T04:05:46;61.78;;;34.53;;
82705;SDS011;72428;41.978;21.464;2024-01-27T04:08:12;64.68;;;33.03;;
82705;SDS011;72428;41.978;21.464;2024-01-27T04:10:38;66.78;;;35.50;;
82705;SDS011;72428;41.978;21.464;2024-01-27T04:13:04;69.63;;;36.97;;
82705;SDS011;72428;41.978;21.464;2024-01-27T04:15:33;60.00;;;37.05;;
82705;SDS011;72428;41.978;21.464;2024-01-27T04:18:06;62.13;;;34.25;;
82705;SDS011;72428;41.978;21.464;2024-01-27T04:20:36;71.05;;;35.55;;
82705;SDS011;72428;41.978;21.464;2024-01-27T04:23:03;62.25;;;36.08;;
82705;SDS011;72428;41.978;21.464;2024-01-27T04:25:29;57.55;;;34.05;;
82705;SDS011;72428;41.978;21.464;2024-01-27T04:27:55;71.75;;;37.88;;
82705;SDS011;72428;41.978;21.464;2024-01-27T04:30:21;63.83;;;34.03;;
82705;SDS011;72428;41.978;21.464;2024-01-27T04:32:47;62.83;;;34.28;;
82705;SDS011;72428;41.978;21.464;2024-01-27T04:35:17;61.95;;;35.63;;
82705;SDS011;72428;41.978;21.464;2024-01-27T04:37:43;62.28;;;34.65;;
82705;SDS011;72428;41.978;21.464;2024-01-27T04:40:10;55.70;;;32.92;;
82705;SDS011;72428;41.978;21.464;2024-01-27T04:42:37;57.85;;;33.97;;
82705;SDS011;72428;41.978;21.464;2024-01-27T04:45:04;55.90;;;34.90;;
82705;SDS011;72428;41.978;21.464;2024-01-27T04:47:30;57.83;;;34.80;;
82705;SDS011;72428;41.978;21.464;2024-01-27T04:49:56;52.28;;;32.45;;
82705;SDS011;72428;41.978;21.464;2024-01-27T04:52:23;57.47;;;31.55;;
82705;SDS011;72428;41.978;21.464;2024-01-27T04:54:50;60.55;;;32.40;;
82705;SDS011;72428;41.978;21.464;2024-01-27T04:57:17;58.55;;;31.15;;
82705;SDS011;72428;41.978;21.464;2024-01-27T04:59:43;54.92;;;32.08;;
82705;SDS011;72428;41.978;21.464;2024-01-27T05:02:09;58.63;;;32.35;;
82705;SDS011;72428;41.978;21.464;2024-01-27T05:04:36;59.72;;;33.72;;
82705;SDS011;72428;41.978;21.464;2024-01-27T05:07:02;63.65;;;33.03;;
82705;SDS011;72428;41.978;21.464;2024-01-27T05:09:28;60.58;;;32.05;;
82705;SDS011;72428;41.978;21.464;2024-01-27T05:11:55;56.50;;;33.83;;
82705;SDS011;72428;41.978;21.464;2024-01-27T05:14:21;64.70;;;34.45;;
82705;SDS011;72428;41.978;21.464;2024-01-27T05:16:47;59.72;;;32.40;;
82705;SDS011;72428;41.978;21.464;2024-01-27T05:19:13;62.92;;;34.55;;
82705;SDS011;72428;41.978;21.464;2024-01-27T05:21:40;66.88;;;33.67;;
82705;SDS011;72428;41.978;21.464;2024-01-27T05:24:06;56.78;;;33.03;;
82705;SDS011;72428;41.978;21.464;2024-01-27T05:26:32;59.78;;;32.72;;
82705;SDS011;72428;41.978;21.464;2024-01-27T05:28:58;59.65;;;34.40;;
82705;SDS011;72428;41.978;21.464;2024-01-27T05:31:25;57.47;;;33.00;;
82705;SDS011;72428;41.978;21.464;2024-01-27T05:33:51;54.47;;;30.70;;
82705;SDS011;72428;41.978;21.464;2024-01-27T05:36:17;52.10;;;29.58;;
82705;SDS011;72428;41.978;21.464;2024-01-27T05:38:43;57.15;;;31.13;;
82705;SDS011;72428;41.978;21.464;2024-01-27T05:41:10;50.42;;;31.02;;
82705;SDS011;72428;41.978;21.464;2024-01-27T05:43:36;58.72;;;35.47;;
82705;SDS011;72428;41.978;21.464;2024-01-27T05:46:02;53.85;;;31.67;;
82705;SDS011;72428;41.978;21.464;2024-01-27T05:48:28;47.65;;;30.42;;
82705;SDS011;72428;41.978;21.464;2024-01-27T05:50:55;46.38;;;27.20;;
82705;SDS011;72428;41.978;21.464;2024-01-27T05:53:21;53.75;;;32.00;;
82705;SDS011;72428;41.978;21.464;2024-01-27T05:55:47;48.72;;;28.52;;
82705;SDS011;72428;41.978;21.464;2024-01-27T05:58:14;54.85;;;31.38;;
82705;SDS011;72428;41.978;21.464;2024-01-27T06:00:42;53.97;;;29.05;;
82705;SDS011;72428;41.978;21.464;2024-01-27T06:03:09;55.08;;;28.95;;
82705;SDS011;72428;41.978;21.464;2024-01-27T06:05:35;50.72;;;28.17;;
82705;SDS011;72428;41.978;21.464;2024-01-27T06:08:01;38.08;;;21.02;;
82705;SDS011;72428;41.978;21.464;2024-01-27T06:10:27;51.38;;;30.08;;
82705;SDS011;72428;41.978;21.464;2024-01-27T06:12:55;50.17;;;28.50;;
82705;SDS011;72428;41.978;21.464;2024-01-27T06:15:21;46.65;;;27.65;;
82705;SDS011;72428;41.978;21.464;2024-01-27T06:17:47;50.83;;;29.38;;
82705;SDS011;72428;41.978;21.464;2024-01-27T06:20:13;53.78;;;29.52;;
82705;SDS011;72428;41.978;21.464;2024-01-27T06:22:42;46.95;;;28.88;;
82705;SDS011;72428;41.978;21.464;2024-01-27T06:25:08;46.85;;;24.88;;
82705;SDS011;72428;41.978;21.464;2024-01-27T06:27:35;53.33;;;28.77;;
82705;SDS011;72428;41.978;21.464;2024-01-27T06:30:03;43.40;;;24.48;;
82705;SDS011;72428;41.978;21.464;2024-01-27T06:32:29;49.10;;;28.05;;
82705;SDS011;72428;41.978;21.464;2024-01-27T06:34:55;43.70;;;23.85;;
82705;SDS011;72428;41.978;21.464;2024-01-27T06:37:21;59.03;;;32.55;;
82705;SDS011;72428;41.978;21.464;2024-01-27T06:39:47;57.90;;;34.13;;
82705;SDS011;72428;41.978;21.464;2024-01-27T06:42:13;59.00;;;32.40;;
82705;SDS011;72428;41.978;21.464;2024-01-27T06:44:39;62.00;;;32.97;;
82705;SDS011;72428;41.978;21.464;2024-01-27T06:47:05;59.42;;;34.72;;
82705;SDS011;72428;41.978;21.464;2024-01-27T06:49:32;59.80;;;35.05;;
82705;SDS011;72428;41.978;21.464;2024-01-27T06:51:58;60.83;;;35.88;;
82705;SDS011;72428;41.978;21.464;2024-01-27T06:54:25;57.42;;;30.48;;
82705;SDS011;72428;41.978;21.464;2024-01-27T06:56:51;58.28;;;32.58;;
82705;SDS011;72428;41.978;21.464;2024-01-27T06:59:17;50.53;;;29.38;;
82705;SDS011;72428;41.978;21.464;2024-01-27T07:01:46;56.83;;;34.78;;
82705;SDS011;72428;41.978;21.464;2024-01-27T07:04:13;53.95;;;32.47;;
82705;SDS011;72428;41.978;21.464;2024-01-27T07:06:39;48.38;;;28.67;;
82705;SDS011;72428;41.978;21.464;2024-01-27T07:09:05;53.45;;;30.75;;
82705;SDS011;72428;41.978;21.464;2024-01-27T07:11:32;41.63;;;25.48;;
82705;SDS011;72428;41.978;21.464;2024-01-27T07:13:58;33.28;;;20.52;;
82705;SDS011;72428;41.978;21.464;2024-01-27T07:16:25;30.33;;;16.85;;
82705;SDS011;72428;41.978;21.464;2024-01-27T07:18:51;29.88;;;15.98;;
82705;SDS011;72428;41.978;21.464;2024-01-27T07:21:17;32.75;;;21.77;;
82705;SDS011;72428;41.978;21.464;2024-01-27T07:23:43;33.33;;;18.52;;
82705;SDS011;72428;41.978;21.464;2024-01-27T07:26:09;30.60;;;17.48;;
82705;SDS011;72428;41.978;21.464;2024-01-27T07:28:36;31.70;;;19.63;;
82705;SDS011;72428;41.978;21.464;2024-01-27T07:31:02;36.88;;;19.23;;
82705;SDS011;72428;41.978;21.464;2024-01-27T07:33:28;34.90;;;18.98;;
82705;SDS011;72428;41.978;21.464;2024-01-27T07:35:54;29.48;;;18.77;;
82705;SDS011;72428;41.978;21.464;2024-01-27T07:38:21;30.63;;;15.35;;
82705;SDS011;72428;41.978;21.464;2024-01-27T07:40:47;32.60;;;15.15;;
82705;SDS011;72428;41.978;21.464;2024-01-27T07:43:13;29.02;;;16.77;;
82705;SDS011;72428;41.978;21.464;2024-01-27T07:45:39;34.45;;;16.42;;
82705;SDS011;72428;41.978;21.464;2024-01-27T07:48:05;25.52;;;16.27;;
82705;SDS011;72428;41.978;21.464;2024-01-27T07:50:32;28.98;;;17.20;;
82705;SDS011;72428;41.978;21.464;2024-01-27T07:52:58;24.92;;;16.38;;
82705;SDS011;72428;41.978;21.464;2024-01-27T07:55:24;24.40;;;16.15;;
82705;SDS011;72428;41.978;21.464;2024-01-27T07:57:50;29.77;;;16.35;;
82705;SDS011;72428;41.978;21.464;2024-01-27T08:00:16;30.17;;;17.45;;
82705;SDS011;72428;41.978;21.464;2024-01-27T08:02:43;32.78;;;17.98;;
82705;SDS011;72428;41.978;21.464;2024-01-27T08:05:09;30.40;;;19.00;;
82705;SDS011;72428;41.978;21.464;2024-01-27T08:07:35;31.50;;;16.55;;
82705;SDS011;72428;41.978;21.464;2024-01-27T08:10:01;29.73;;;15.95;;
82705;SDS011;72428;41.978;21.464;2024-01-27T08:12:29;23.00;;;14.13;;
82705;SDS011;72428;41.978;21.464;2024-01-27T08:14:55;33.75;;;16.92;;
82705;SDS011;72428;41.978;21.464;2024-01-27T08:17:21;32.60;;;18.83;;
82705;SDS011;72428;41.978;21.464;2024-01-27T08:19:47;35.33;;;20.30;;
82705;SDS011;72428;41.978;21.464;2024-01-27T08:22:14;37.75;;;22.98;;
82705;SDS011;72428;41.978;21.464;2024-01-27T08:24:40;43.35;;;23.95;;
82705;SDS011;72428;41.978;21.464;2024-01-27T08:27:06;32.22;;;19.52;;
82705;SDS011;72428;41.978;21.464;2024-01-27T08:29:32;40.13;;;23.25;;
82705;SDS011;72428;41.978;21.464;2024-01-27T08:31:58;40.70;;;23.42;;
82705;SDS011;72428;41.978;21.464;2024-01-27T08:34:24;41.78;;;24.50;;
82705;SDS011;72428;41.978;21.464;2024-01-27T08:36:50;40.50;;;23.80;;
82705;SDS011;72428;41.978;21.464;2024-01-27T08:39:17;47.67;;;22.15;;
82705;SDS011;72428;41.978;21.464;2024-01-27T08:41:43;34.50;;;23.17;;
82705;SDS011;72428;41.978;21.464;2024-01-27T08:44:09;43.67;;;25.02;;
82705;SDS011;72428;41.978;21.464;2024-01-27T08:46:35;45.13;;;22.55;;
82705;SDS011;72428;41.978;21.464;2024-01-27T08:49:01;36.90;;;20.30;;
82705;SDS011;72428;41.978;21.464;2024-01-27T08:51:27;28.60;;;16.95;;
82705;SDS011;72428;41.978;21.464;2024-01-27T08:53:53;16.05;;;8.82;;
82705;SDS011;72428;41.978;21.464;2024-01-27T08:56:19;15.23;;;7.95;;
82705;SDS011;72428;41.978;21.464;2024-01-27T08:58:45;10.15;;;5.47;;
82705;SDS011;72428;41.978;21.464;2024-01-27T09:01:12;41.88;;;26.63;;
82705;SDS011;72428;41.978;21.464;2024-01-27T09:03:40;50.83;;;26.55;;
82705;SDS011;72428;41.978;21.464;2024-01-27T09:06:06;57.05;;;28.13;;
82705;SDS011;72428;41.978;21.464;2024-01-27T09:08:33;37.60;;;24.63;;
82705;SDS011;72428;41.978;21.464;2024-01-27T09:11:02;44.38;;;22.95;;
82705;SDS011;72428;41.978;21.464;2024-01-27T09:13:28;39.72;;;22.38;;
82705;SDS011;72428;41.978;21.464;2024-01-27T09:15:54;37.63;;;21.05;;
82705;SDS011;72428;41.978;21.464;2024-01-27T09:18:20;37.33;;;22.52;;
82705;SDS011;72428;41.978;21.464;2024-01-27T09:20:47;43.75;;;22.60;;
82705;SDS011;72428;41.978;21.464;2024-01-27T09:23:13;38.92;;;20.30;;
82705;SDS011;72428;41.978;21.464;2024-01-27T09:25:41;42.10;;;21.42;;
82705;SDS011;72428;41.978;21.464;2024-01-27T09:28:07;33.50;;;20.50;;
82705;SDS011;72428;41.978;21.464;2024-01-27T09:30:33;33.95;;;19.70;;
82705;SDS011;72428;41.978;21.464;2024-01-27T09:32:59;31.17;;;19.75;;
82705;SDS011;72428;41.978;21.464;2024-01-27T09:35:25;35.13;;;19.13;;
82705;SDS011;72428;41.978;21.464;2024-01-27T09:37:51;31.73;;;18.45;;
82705;SDS011;72428;41.978;21.464;2024-01-27T09:40:17;16.45;;;7.00;;
82705;SDS011;72428;41.978;21.464;2024-01-27T09:42:51;12.75;;;4.68;;
82705;SDS011;72428;41.978;21.464;2024-01-27T09:45:20;8.27;;;5.25;;
82705;SDS011;72428;41.978;21.464;2024-01-27T09:47:50;5.75;;;2.92;;
82705;SDS011;72428;41.978;21.464;2024-01-27T09:50:17;4.85;;;2.22;;
82705;SDS011;72428;41.978;21.464;2024-01-27T09:52:44;4.53;;;2.33;;
82705;SDS011;72428;41.978;21.464;2024-01-27T09:55:10;6.30;;;3.10;;
82705;SDS011;72428;41.978;21.464;2024-01-27T09:57:36;6.78;;;2.33;;
82705;SDS011;72428;41.978;21.464;2024-01-27T10:00:04;4.95;;;2.10;;
82705;SDS011;72428;41.978;21.464;2024-01-27T10:02:31;5.70;;;2.15;;
82705;SDS011;72428;41.978;21.464;2024-01-27T10:04:58;5.63;;;2.92;;
82705;SDS011;72428;41.978;21.464;2024-01-27T10:07:24;4.47;;;2.03;;
82705;SDS011;72428;41.978;21.464;2024-01-27T10:09:50;4.13;;;1.92;;
82705;SDS011;72428;41.978;21.464;2024-01-27T10:12:16;4.72;;;2.70;;
82705;SDS011;72428;41.978;21.464;2024-01-27T10:14:43;5.22;;;2.50;;
82705;SDS011;72428;41.978;21.464;2024-01-27T10:17:23;6.65;;;2.80;;
82705;SDS011;72428;41.978;21.464;2024-01-27T10:20:03;6.07;;;2.33;;
82705;SDS011;72428;41.978;21.464;2024-01-27T10:22:39;5.07;;;2.20;;
82705;SDS011;72428;41.978;21.464;2024-01-27T10:25:06;6.45;;;2.60;;
82705;SDS011;72428;41.978;21.464;2024-01-27T10:27:32;5.10;;;1.80;;
82705;SDS011;72428;41.978;21.464;2024-01-27T10:29:58;6.68;;;2.92;;
82705;SDS011;72428;41.978;21.464;2024-01-27T10:32:24;6.22;;;2.60;;
82705;SDS011;72428;41.978;21.464;2024-01-27T10:35:06;4.85;;;2.40;;
82705;SDS011;72428;41.978;21.464;2024-01-27T10:37:35;5.97;;;2.13;;
82705;SDS011;72428;41.978;21.464;2024-01-27T10:40:02;4.57;;;1.70;;
82705;SDS011;72428;41.978;21.464;2024-01-27T10:42:29;5.55;;;1.98;;
82705;SDS011;72428;41.978;21.464;2024-01-27T10:44:57;9.82;;;3.28;;
82705;SDS011;72428;41.978;21.464;2024-01-27T10:47:25;5.18;;;2.63;;
82705;SDS011;72428;41.978;21.464;2024-01-27T10:49:52;5.18;;;2.40;;
82705;SDS011;72428;41.978;21.464;2024-01-27T10:52:20;4.50;;;2.45;;
82705;SDS011;72428;41.978;21.464;2024-01-27T10:54:47;4.55;;;2.60;;
82705;SDS011;72428;41.978;21.464;2024-01-27T10:57:13;5.25;;;2.05;;
82705;SDS011;72428;41.978;21.464;2024-01-27T10:59:40;5.50;;;2.30;;
82705;SDS011;72428;41.978;21.464;2024-01-27T11:02:08;5.70;;;2.35;;
82705;SDS011;72428;41.978;21.464;2024-01-27T11:04:37;4.55;;;2.00;;
82705;SDS011;72428;41.978;21.464;2024-01-27T11:07:04;4.90;;;2.00;;
82705;SDS011;72428;41.978;21.464;2024-01-27T11:09:32;4.32;;;2.08;;
82705;SDS011;72428;41.978;21.464;2024-01-27T11:11:58;4.70;;;1.70;;
82705;SDS011;72428;41.978;21.464;2024-01-27T11:14:25;3.58;;;1.92;;
82705;SDS011;72428;41.978;21.464;2024-01-27T11:16:57;3.65;;;1.52;;
82705;SDS011;72428;41.978;21.464;2024-01-27T11:19:23;3.63;;;2.05;;
82705;SDS011;72428;41.978;21.464;2024-01-27T11:22:00;3.60;;;1.73;;
82705;SDS011;72428;41.978;21.464;2024-01-27T11:24:26;3.88;;;2.00;;
82705;SDS011;72428;41.978;21.464;2024-01-27T11:27:01;5.20;;;2.30;;
82705;SDS011;72428;41.978;21.464;2024-01-27T11:29:28;3.50;;;1.73;;
82705;SDS011;72428;41.978;21.464;2024-01-27T11:31:57;5.03;;;2.47;;
82705;SDS011;72428;41.978;21.464;2024-01-27T11:34:23;8.57;;;2.83;;
82705;SDS011;72428;41.978;21.464;2024-01-27T11:36:49;5.22;;;2.15;;
82705;SDS011;72428;41.978;21.464;2024-01-27T11:39:30;6.80;;;2.15;;
82705;SDS011;72428;41.978;21.464;2024-01-27T11:42:07;6.03;;;2.13;;
82705;SDS011;72428;41.978;21.464;2024-01-27T11:44:33;4.53;;;2.45;;
82705;SDS011;72428;41.978;21.464;2024-01-27T11:47:00;6.10;;;1.75;;
82705;SDS011;72428;41.978;21.464;2024-01-27T11:49:26;5.03;;;2.20;;
82705;SDS011;72428;41.978;21.464;2024-01-27T11:51:52;9.32;;;2.15;;
82705;SDS011;72428;41.978;21.464;2024-01-27T11:54:18;4.25;;;2.00;;
82705;SDS011;72428;41.978;21.464;2024-01-27T11:56:44;4.20;;;2.33;;
82705;SDS011;72428;41.978;21.464;2024-01-27T11:59:11;5.25;;;2.50;;
82705;SDS011;72428;41.978;21.464;2024-01-27T12:01:37;4.65;;;2.05;;
82705;SDS011;72428;41.978;21.464;2024-01-27T12:04:04;5.57;;;2.25;;
82705;SDS011;72428;41.978;21.464;2024-01-27T12:06:30;5.85;;;2.50;;
82705;SDS011;72428;41.978;21.464;2024-01-27T12:08:57;5.63;;;2.40;;
82705;SDS011;72428;41.978;21.464;2024-01-27T12:11:24;5.28;;;2.53;;
82705;SDS011;72428;41.978;21.464;2024-01-27T12:13:50;5.97;;;2.22;;
82705;SDS011;72428;41.978;21.464;2024-01-27T12:16:16;4.07;;;1.88;;
82705;SDS011;72428;41.978;21.464;2024-01-27T12:18:43;3.63;;;1.67;;
82705;SDS011;72428;41.978;21.464;2024-01-27T12:21:09;6.28;;;2.25;;
82705;SDS011;72428;41.978;21.464;2024-01-27T12:23:35;5.50;;;2.20;;
82705;SDS011;72428;41.978;21.464;2024-01-27T12:26:01;7.05;;;2.15;;
82705;SDS011;72428;41.978;21.464;2024-01-27T12:28:29;10.65;;;2.33;;
82705;SDS011;72428;41.978;21.464;2024-01-27T12:30:55;4.25;;;1.98;;
82705;SDS011;72428;41.978;21.464;2024-01-27T12:33:21;4.22;;;2.10;;
82705;SDS011;72428;41.978;21.464;2024-01-27T12:35:50;5.55;;;1.70;;
82705;SDS011;72428;41.978;21.464;2024-01-27T12:38:19;5.78;;;2.00;;
82705;SDS011;72428;41.978;21.464;2024-01-27T12:40:45;3.97;;;1.80;;
82705;SDS011;72428;41.978;21.464;2024-01-27T12:43:11;3.83;;;1.73;;
82705;SDS011;72428;41.978;21.464;2024-01-27T12:45:37;4.38;;;1.75;;
82705;SDS011;72428;41.978;21.464;2024-01-27T12:48:03;4.97;;;2.25;;
82705;SDS011;72428;41.978;21.464;2024-01-27T12:50:30;4.75;;;2.03;;
82705;SDS011;72428;41.978;21.464;2024-01-27T12:52:58;4.82;;;2.20;;
82705;SDS011;72428;41.978;21.464;2024-01-27T12:55:24;4.05;;;1.95;;
82705;SDS011;72428;41.978;21.464;2024-01-27T12:57:50;3.88;;;1.63;;
82705;SDS011;72428;41.978;21.464;2024-01-27T13:00:16;4.35;;;1.95;;
82705;SDS011;72428;41.978;21.464;2024-01-27T13:02:43;2.03;;;1.40;;
82705;SDS011;72428;41.978;21.464;2024-01-27T13:05:09;4.95;;;1.73;;
82705;SDS011;72428;41.978;21.464;2024-01-27T13:07:35;4.05;;;1.60;;
82705;SDS011;72428;41.978;21.464;2024-01-27T13:10:01;4.13;;;1.60;;
82705;SDS011;72428;41.978;21.464;2024-01-27T13:12:27;4.10;;;1.52;;
82705;SDS011;72428;41.978;21.464;2024-01-27T13:14:53;3.17;;;1.63;;
82705;SDS011;72428;41.978;21.464;2024-01-27T13:17:20;4.05;;;1.42;;
82705;SDS011;72428;41.978;21.464;2024-01-27T13:19:46;3.85;;;1.58;;
82705;SDS011;72428;41.978;21.464;2024-01-27T13:22:12;4.47;;;1.58;;
82705;SDS011;72428;41.978;21.464;2024-01-27T13:24:38;4.53;;;1.80;;
82705;SDS011;72428;41.978;21.464;2024-01-27T13:27:04;3.35;;;1.52;;
82705;SDS011;72428;41.978;21.464;2024-01-27T13:29:33;5.20;;;1.90;;
82705;SDS011;72428;41.978;21.464;2024-01-27T13:31:59;4.63;;;1.77;;
82705;SDS011;72428;41.978;21.464;2024-01-27T13:34:27;4.38;;;1.80;;
82705;SDS011;72428;41.978;21.464;2024-01-27T13:36:55;3.67;;;1.50;;
82705;SDS011;72428;41.978;21.464;2024-01-27T13:39:22;2.88;;;1.52;;
82705;SDS011;72428;41.978;21.464;2024-01-27T13:41:48;6.50;;;2.00;;
82705;SDS011;72428;41.978;21.464;2024-01-27T13:44:14;6.18;;;1.60;;
82705;SDS011;72428;41.978;21.464;2024-01-27T13:46:40;3.85;;;1.67;;
82705;SDS011;72428;41.978;21.464;2024-01-27T13:49:07;8.00;;;2.42;;
82705;SDS011;72428;41.978;21.464;2024-01-27T13:51:33;8.23;;;1.90;;
82705;SDS011;72428;41.978;21.464;2024-01-27T13:53:59;3.50;;;2.10;;
82705;SDS011;72428;41.978;21.464;2024-01-27T13:56:25;5.93;;;1.90;;
82705;SDS011;72428;41.978;21.464;2024-01-27T13:58:52;7.45;;;2.15;;
82705;SDS011;72428;41.978;21.464;2024-01-27T14:01:18;5.68;;;1.88;;
82705;SDS011;72428;41.978;21.464;2024-01-27T14:03:44;4.97;;;1.80;;
82705;SDS011;72428;41.978;21.464;2024-01-27T14:06:10;3.90;;;1.88;;
82705;SDS011;72428;41.978;21.464;2024-01-27T14:08:37;3.92;;;1.92;;
82705;SDS011;72428;41.978;21.464;2024-01-27T14:11:03;6.45;;;1.85;;
82705;SDS011;72428;41.978;21.464;2024-01-27T14:13:29;4.90;;;2.03;;